Donnelly, Canada
Current Conditions -  °F | °C
As of 2:00 AM on Sunday 21 Dec 2014 (Local Time) from CYPE Reporting Station
Broken Clouds Broken Clouds  
Wind Chill: 14°   Ceiling: 25000
Heat Index: 14°   Visibility: 15mi
Dew Point: 10°   Wind: 3mph
Humidity: 86%   Direction: 350°N
Pressure: 29.24"   Gusts: NA
Location:  55.73°N, 117.12°W
Report Text: CYPE 210900Z 35003KT 15SM SCT060 BKN250 M10/M12 A2924 RMK SC3CI3 SLP939
Loading
Personal Weather Stations






























Interactive Weather Map New forecast layout! Learn more

10-Day Weather Forecast

Advertisements
Track Severe Weather on mobile